Bezoek ook deze websites:

Weerstation Noordbergum

Weerstation in Leuven


U vindt ons ook hier:

Weather Underground


METAR rapporten vliegvelden

   
EHGG - Groningen/Eelde, Netherlands
Afstand tot: ONO 18 km
Gewijzigd: 07-12-2021 09:25
Helder  
Helder  
   Wind: Zuiden 11.1 km/h
Wind: Zuiden 11.1 km/h
Temperatuur: 1°C
Voelt als: -2°C
Dauwpunt: 1°C
Vochtigheid: 100%
Barometer: 1006 hPa
Bewolking: Helder
Zicht: 9 km
Bewolking: Helder
EHGG 070825Z AUTO 17006KT 9000 NCD 01/01 Q1006 NOSIG
EHLW - Leeuwarden Rnlaf, Netherlands
Afstand tot: WNW 45 km
Gewijzigd: 07-12-2021 09:25
Helder  
Helder  
   Wind: ZZW 11.1 km/h
Wind: ZZW 11.1 km/h
Temperatuur: 2°C
Voelt als: -1°C
Dauwpunt: 1°C
Vochtigheid: 93%
Barometer: 1006 hPa
Bewolking: Helder
Zicht: meer dan 10 km
Bewolking: Helder
EHLW 070825Z AUTO 21006KT 9999 NCD 02/01 Q1006 BLU
EHVL - Vlieland Island, Netherlands
Afstand tot: WNW 98 km
Gewijzigd: 07-12-2021 09:55
Bewolking  
Bewolking  
   Wind: Westen 29.6 km/h
Wind: Westen 29.6 km/h
Temperatuur: 7°C
Voelt als: 3°C
Dauwpunt: 2°C
Vochtigheid: 71%
Barometer: 1006 hPa
Bewolking: Bewolking
Bewolking: Licht bewolkt 3200 ft,
Grotendeels bewolkt 3800 ft,
Bewolking 4200 ft
EHVL 070855Z AUTO 26016KT //// // FEW032 BKN038 OVC042 07/02 Q1006 RE//
EHKD - De Kooy (navy), Netherlands
Afstand tot: W 106 km
Gewijzigd: 07-12-2021 09:25
Bewolking  
Bewolking  
   Wind: Westen 11.1 km/h
Wind: Westen 11.1 km/h
Temperatuur: 6°C
Voelt als: 4°C
Dauwpunt: 1°C
Vochtigheid: 71%
Barometer: 1006 hPa
Bewolking: Bewolking
Zicht: meer dan 10 km
Bewolking: Bewolking 25000 ft
EHKD 070825Z AUTO 26006KT 220V280 9999 OVC250 06/01 Q1006 BLU NOSIG
EHDL - Deelen Rnlafb, Netherlands
Afstand tot: ZZW 112 km
Gewijzigd: 07-12-2021 09:55
Licht bewolkt  
Licht bewolkt  
   Wind: ZZW 14.8 km/h
Wind: ZZW 14.8 km/h
Temperatuur: 2°C
Voelt als: -2°C
Dauwpunt: 2°C
Vochtigheid: 100%
Barometer: 1008 hPa
Bewolking: Licht bewolkt
Zicht: meer dan 10 km
Bewolking: Licht bewolkt 26000 ft
EHDL 070855Z AUTO 20008KT 150V240 9999 FEW260 02/02 Q1008 BLU
EHAM - Amsterdam/Schiph, Netherlands
Afstand tot: ZW 132 km
Gewijzigd: 07-12-2021 09:25
Licht bewolkt  
Licht bewolkt  
   Wind: Zuiden 13 km/h
Wind: Zuiden 13 km/h
Temperatuur: 2°C
Voelt als: -2°C
Dauwpunt: 1°C
Vochtigheid: 93%
Barometer: 1007 hPa
Bewolking: Licht bewolkt
Zicht: meer dan 10 km
Bewolking: Licht bewolkt 2400 ft
EHAM 070825Z 18007KT 9999 FEW024 02/01 Q1007 NOSIG

Script ontwikkeld door  Saratoga-weather.org Aangepast voor de template door  Weerstation Leuven

Apparatuur in gebruik:

Weerstation
Davis VP2

Weerprogramma
Meteobridge

Weercomputer
TP-link TL-MR3020

Webleverancier
Versio

Davis VP2

Meteobridge

TP-link TL-MR3020

Versio